Time;durP1;ratioP1;P1;durP2;ratioP2;P2;SDS_P1;SDS_P2;PMS_P1;PMS_P2;Temp;Humidity;BMP_temperature;BMP_pressure;BME280_temperature;BME280_humidity;BME280_pressure;Samples;Min_cycle;Max_cycle;Signal;HPM_P1;HPM_P2
2022/08/08 00:00:21;;;;;;;8.85;3.80;;;14.80;99.90;;;;;;5069096;28;20045;-76
2022/08/08 00:03:07;;;;;;;6.18;3.50;;;14.80;99.90;;;;;;5070093;28;20098;-75
2022/08/08 00:05:44;;;;;;;4.78;3.20;;;14.80;99.90;;;;;;5068954;28;20048;-78
2022/08/08 00:08:32;;;;;;;5.25;3.20;;;14.80;99.90;;;;;;5068872;28;20055;-75
2022/08/08 00:11:01;;;;;;;5.97;3.60;;;14.80;99.90;;;;;;5051706;28;20048;-77
2022/08/08 00:14:07;;;;;;;5.68;3.55;;;14.70;99.90;;;;;;5068376;28;20048;-76
2022/08/08 00:16:44;;;;;;;;;;;14.70;99.90;;;;;;5063867;28;20051;-79
2022/08/08 00:19:17;;;;;;;5.13;3.30;;;14.70;99.90;;;;;;5068062;28;19927;-76
2022/08/08 00:21:58;;;;;;;5.68;3.63;;;14.60;99.90;;;;;;5069439;28;20036;-77
2022/08/08 00:24:32;;;;;;;5.80;3.30;;;14.60;99.90;;;;;;5068140;28;20044;-77
2022/08/08 00:27:04;;;;;;;4.50;3.20;;;14.60;99.90;;;;;;5068079;28;20048;-76
2022/08/08 00:29:43;;;;;;;5.18;3.35;;;14.50;99.90;;;;;;5062641;28;20488;-79
2022/08/08 00:32:13;;;;;;;4.53;3.20;;;14.50;99.90;;;;;;5054818;28;20040;-75
2022/08/08 00:38:00;;;;;;;7.00;4.28;;;14.30;99.90;;;;;;5055924;28;20052;-78
2022/08/08 00:40:28;;;;;;;7.70;3.60;;;14.20;99.90;;;;;;5054997;28;20461;-77
2022/08/08 00:43:19;;;;;;;6.47;3.53;;;14.10;99.90;;;;;;5054680;28;20053;-76
2022/08/08 00:46:33;;;;;;;5.35;3.60;;;14.10;99.90;;;;;;5054918;28;20052;-75
2022/08/08 00:49:33;;;;;;;6.43;3.33;;;14.10;99.90;;;;;;5054857;28;20040;-76
2022/08/08 00:52:22;;;;;;;7.47;3.58;;;14.10;99.90;;;;;;5054509;28;20041;-77
2022/08/08 00:55:09;;;;;;;6.95;3.47;;;14.20;99.90;;;;;;5056193;28;20041;-77
2022/08/08 00:57:46;;;;;;;7.18;3.97;;;14.10;99.90;;;;;;5054817;28;20049;-78
2022/08/08 01:00:18;;;;;;;7.78;3.05;;;14.10;99.90;;;;;;5056735;28;20116;-79
2022/08/08 01:03:12;;;;;;;4.43;2.95;;;14.10;99.90;;;;;;5055982;28;20032;-77
2022/08/08 01:06:15;;;;;;;4.95;3.20;;;14.00;99.90;;;;;;5037795;28;20041;-77
2022/08/08 01:09:09;;;;;;;6.57;3.28;;;13.90;99.90;;;;;;5056073;28;20510;-77
2022/08/08 01:11:44;;;;;;;5.38;3.55;;;13.90;99.90;;;;;;5054611;28;20488;-79
2022/08/08 01:14:19;;;;;;;5.90;3.50;;;13.80;99.90;;;;;;5054595;28;20045;-76
2022/08/08 01:17:03;;;;;;;5.53;3.27;;;13.80;99.90;;;;;;5054997;28;20135;-79
2022/08/08 01:20:06;;;;;;;7.75;3.53;;;13.80;99.90;;;;;;5054983;28;20124;-78
2022/08/08 01:22:57;;;;;;;5.25;3.40;;;13.80;99.90;;;;;;5037902;28;20393;-76
2022/08/08 01:26:01;;;;;;;4.82;3.50;;;13.80;99.90;;;;;;5054620;28;20400;-78
2022/08/08 01:28:54;;;;;;;4.90;3.45;;;13.70;99.90;;;;;;5054777;28;20052;-76
2022/08/08 01:31:28;;;;;;;4.97;2.83;;;13.80;99.90;;;;;;5054393;28;20396;-76
2022/08/08 01:34:03;;;;;;;8.23;2.90;;;13.70;99.90;;;;;;5054537;28;20044;-78
2022/08/08 01:36:53;;;;;;;4.05;2.95;;;13.70;99.90;;;;;;5037425;28;20045;-79
2022/08/08 01:39:38;;;;;;;3.92;2.97;;;13.70;99.90;;;;;;5055337;28;20045;-77
2022/08/08 01:42:09;;;;;;;4.30;3.15;;;13.60;99.90;;;;;;5053148;28;20091;-78
2022/08/08 01:44:48;;;;;;;4.93;3.50;;;13.60;99.90;;;;;;5037660;28;20033;-77
2022/08/08 01:47:32;;;;;;;4.93;3.28;;;13.60;99.90;;;;;;5054010;28;20045;-77
2022/08/08 01:50:05;;;;;;;3.33;2.60;;;13.60;99.90;;;;;;5054925;28;20500;-75
2022/08/08 01:52:52;;;;;;;4.00;2.90;;;13.60;99.90;;;;;;5053701;28;20037;-78
2022/08/08 01:55:40;;;;;;;4.45;3.10;;;13.60;99.90;;;;;;5053799;28;20044;-75
2022/08/08 01:58:27;;;;;;;5.22;3.85;;;13.50;99.90;;;;;;5054780;28;20485;-77
2022/08/08 02:01:03;;;;;;;5.40;3.83;;;13.50;99.90;;;;;;5037217;28;20040;-77
2022/08/08 02:03:29;;;;;;;5.30;3.70;;;13.40;99.90;;;;;;5037144;28;20044;-78
2022/08/08 02:06:48;;;;;;;6.22;3.75;;;13.40;99.90;;;;;;5053442;28;20396;-77
2022/08/08 02:09:42;;;;;;;4.25;3.35;;;13.30;99.90;;;;;;5031253;28;20049;-76
2022/08/08 02:12:43;;;;;;;5.15;3.78;;;13.40;99.90;;;;;;5053331;28;20083;-77
2022/08/08 02:15:28;;;;;;;4.88;3.30;;;13.30;99.90;;;;;;5052979;28;20033;-76
2022/08/08 02:18:05;;;;;;;4.93;3.13;;;13.30;99.90;;;;;;5053016;28;20116;-79
2022/08/08 02:23:46;;;;;;;5.30;3.35;;;13.20;99.90;;;;;;5053124;28;20492;-76
2022/08/08 02:26:26;;;;;;;4.63;3.47;;;13.20;99.90;;;;;;5053054;28;20045;-77
2022/08/08 02:29:09;;;;;;;6.88;3.75;;;13.20;99.90;;;;;;5054889;28;20423;-75
2022/08/08 02:31:56;;;;;;;4.50;3.42;;;13.20;99.90;;;;;;5053209;28;20483;-76
2022/08/08 02:35:02;;;;;;;6.93;3.80;;;13.20;99.90;;;;;;5053237;28;20084;-79
2022/08/08 02:38:00;;;;;;;4.60;3.10;;;13.20;99.90;;;;;;5053361;28;20045;-76
2022/08/08 02:40:55;;;;;;;5.20;3.67;;;13.20;99.90;;;;;;5052945;28;20488;-78
2022/08/08 02:43:30;;;;;;;4.38;3.10;;;13.20;99.90;;;;;;5052713;28;20040;-76
2022/08/08 02:46:33;;;;;;;5.18;3.15;;;13.20;99.90;;;;;;5053103;28;20155;-79
2022/08/08 02:49:18;;;;;;;4.57;3.17;;;13.30;99.90;;;;;;5053094;28;20051;-79
2022/08/08 02:52:01;;;;;;;3.90;2.92;;;13.40;99.90;;;;;;5052774;28;20045;-77
2022/08/08 02:54:48;;;;;;;3.80;3.05;;;13.50;99.90;;;;;;5035800;28;20040;-76
2022/08/08 02:57:32;;;;;;;4.10;3.28;;;13.50;99.90;;;;;;5052583;28;20087;-76
2022/08/08 03:00:12;;;;;;;3.80;2.80;;;13.50;99.90;;;;;;5052699;28;20083;-78
2022/08/08 03:03:16;;;;;;;5.20;3.25;;;13.40;99.90;;;;;;5035955;28;20124;-79
2022/08/08 03:06:10;;;;;;;4.80;3.10;;;13.40;99.90;;;;;;5052483;28;20492;-77
2022/08/08 03:09:10;;;;;;;3.92;3.10;;;13.40;99.90;;;;;;5052152;28;20048;-78
2022/08/08 03:12:23;;;;;;;5.18;3.03;;;13.40;99.90;;;;;;5053802;28;20037;-77
2022/08/08 03:15:08;;;;;;;4.82;2.90;;;13.40;99.90;;;;;;5001564;28;20053;-76
2022/08/08 03:17:47;;;;;;;4.78;3.15;;;13.40;99.90;;;;;;5051945;28;20048;-75
2022/08/08 03:20:14;;;;;;;4.20;3.30;;;13.30;99.90;;;;;;5035617;28;20199;-76
2022/08/08 03:22:58;;;;;;;10.63;4.30;;;13.30;99.90;;;;;;5051957;28;20045;-78
2022/08/08 03:25:26;;;;;;;6.55;4.35;;;13.30;99.90;;;;;;5053955;28;20069;-75
2022/08/08 03:28:01;;;;;;;7.18;5.05;;;13.30;99.90;;;;;;5052734;28;20091;-77
2022/08/08 03:30:27;;;;;;;5.80;3.17;;;13.40;99.90;;;;;;5052110;28;20045;-77
2022/08/08 03:35:40;;;;;;;4.72;3.22;;;13.40;99.90;;;;;;5053175;28;20133;-76
2022/08/08 03:38:07;;;;;;;6.53;4.15;;;13.30;99.90;;;;;;5053087;28;20052;-76
2022/08/08 03:40:33;;;;;;;10.90;6.30;;;13.30;99.90;;;;;;5052133;28;20037;-76
2022/08/08 03:42:59;;;;;;;8.55;4.97;;;13.40;99.90;;;;;;5053461;28;20037;-79
2022/08/08 03:45:26;;;;;;;5.63;4.32;;;13.40;99.90;;;;;;5054227;28;20033;-76
2022/08/08 03:48:04;;;;;;;5.20;3.92;;;13.40;99.90;;;;;;5052260;28;20137;-77
2022/08/08 03:50:31;;;;;;;6.45;3.75;;;13.40;99.90;;;;;;5053789;28;20583;-78
2022/08/08 03:53:09;;;;;;;6.32;3.78;;;13.30;99.90;;;;;;5051882;28;20049;-79
2022/08/08 03:55:41;;;;;;;5.38;3.88;;;13.30;99.90;;;;;;5053519;28;20033;-76
2022/08/08 03:58:09;;;;;;;5.20;3.92;;;13.30;99.90;;;;;;5052286;28;20401;-75
2022/08/08 04:00:35;;;;;;;4.57;3.53;;;13.20;99.90;;;;;;5053430;28;20032;-78
2022/08/08 04:03:04;;;;;;;5.32;3.70;;;13.10;99.90;;;;;;5051503;28;20037;-76
2022/08/08 04:05:32;;;;;;;7.40;4.00;;;13.10;99.90;;;;;;5037342;28;20530;-79
2022/08/08 04:07:59;;;;;;;5.60;3.45;;;13.00;99.90;;;;;;5055181;28;20041;-78
2022/08/08 04:10:27;;;;;;;5.72;3.97;;;13.00;99.90;;;;;;5038548;28;20123;-77
2022/08/08 04:12:55;;;;;;;4.40;3.47;;;12.90;99.90;;;;;;5054989;28;20566;-77
2022/08/08 04:15:22;;;;;;;5.40;3.88;;;12.90;99.90;;;;;;5055444;28;20045;-76
2022/08/08 04:17:48;;;;;;;5.70;3.83;;;12.90;99.90;;;;;;5055176;28;20047;-78
2022/08/08 04:20:14;;;;;;;7.57;4.10;;;12.90;99.90;;;;;;5038762;28;20037;-77
2022/08/08 04:22:40;;;;;;;5.53;3.83;;;12.80;99.90;;;;;;5055109;28;20056;-76
2022/08/08 04:25:07;;;;;;;6.60;4.00;;;12.80;99.90;;;;;;5055561;28;20391;-77
2022/08/08 04:27:34;;;;;;;6.70;3.95;;;12.80;99.90;;;;;;5056585;28;20036;-76
2022/08/08 04:30:01;;;;;;;6.57;4.50;;;12.80;99.90;;;;;;5055156;28;20036;-79
2022/08/08 04:32:27;;;;;;;6.45;4.85;;;12.70;99.90;;;;;;5056339;28;20040;-79
2022/08/08 04:34:53;;;;;;;5.30;3.70;;;12.80;99.90;;;;;;5055082;28;20492;-76
2022/08/08 04:37:18;;;;;;;7.53;3.30;;;12.80;99.90;;;;;;5054963;28;20041;-78
2022/08/08 04:39:44;;;;;;;7.53;3.20;;;12.80;99.90;;;;;;5038440;28;20041;-78
2022/08/08 04:42:09;;;;;;;5.47;3.70;;;12.80;99.90;;;;;;5056256;28;20040;-77
2022/08/08 04:44:35;;;;;;;5.50;3.70;;;12.80;99.90;;;;;;5056389;28;20033;-77
2022/08/08 04:47:01;;;;;;;5.60;3.58;;;12.80;99.90;;;;;;5056250;28;20112;-79
2022/08/08 04:49:27;;;;;;;4.95;3.70;;;12.90;99.90;;;;;;5054753;28;20049;-77
2022/08/08 04:51:52;;;;;;;6.82;4.00;;;12.90;99.90;;;;;;5054529;28;20041;-77
2022/08/08 04:54:18;;;;;;;4.72;3.50;;;12.90;99.90;;;;;;5056579;28;20037;-77
2022/08/08 04:56:44;;;;;;;4.75;3.47;;;13.00;99.90;;;;;;5054375;28;20041;-77
2022/08/08 04:59:09;;;;;;;5.70;3.58;;;13.10;99.90;;;;;;5056031;28;20411;-79
2022/08/08 05:01:35;;;;;;;5.80;3.50;;;13.10;99.90;;;;;;5056007;28;20460;-77
2022/08/08 05:04:01;;;;;;;7.95;4.22;;;13.10;99.90;;;;;;5054364;28;20087;-77
2022/08/08 05:06:27;;;;;;;8.02;4.80;;;13.20;99.90;;;;;;5055942;28;20040;-76
2022/08/08 05:08:53;;;;;;;7.18;4.07;;;13.20;99.90;;;;;;5055614;28;20036;-78
2022/08/08 05:11:20;;;;;;;8.13;4.47;;;13.20;99.90;;;;;;5055109;28;20048;-76
2022/08/08 05:13:46;;;;;;;7.22;4.95;;;13.20;99.90;;;;;;5054196;28;20429;-78
2022/08/08 05:16:12;;;;;;;6.03;4.50;;;13.30;99.90;;;;;;5054115;28;20051;-78
2022/08/08 05:18:37;;;;;;;7.30;5.10;;;13.40;99.90;;;;;;5053726;28;20048;-76
2022/08/08 05:21:04;;;;;;;6.88;4.15;;;13.40;99.90;;;;;;5055731;28;20084;-77
2022/08/08 05:23:30;;;;;;;6.53;4.10;;;13.40;99.90;;;;;;5054448;28;20045;-76
2022/08/08 05:25:56;;;;;;;10.07;5.50;;;13.50;99.90;;;;;;5055630;28;20029;-78
2022/08/08 05:28:22;;;;;;;6.57;3.95;;;13.50;99.90;;;;;;5055257;28;20418;-76
2022/08/08 05:30:47;;;;;;;5.85;4.00;;;13.60;99.90;;;;;;5054021;28;20041;-76
2022/08/08 05:33:13;;;;;;;7.80;4.47;;;13.60;99.90;;;;;;5054354;28;20053;-79
2022/08/08 05:35:41;;;;;;;6.43;4.30;;;13.70;99.90;;;;;;5055472;28;20465;-80
2022/08/08 05:38:09;;;;;;;6.72;4.72;;;13.70;99.90;;;;;;5053828;28;20049;-79
2022/08/08 05:40:36;;;;;;;7.78;4.93;;;13.80;99.90;;;;;;5053904;28;20120;-77
2022/08/08 05:43:09;;;;;;;10.20;6.85;;;13.90;99.90;;;;;;5053814;28;20041;-74
2022/08/08 05:45:36;;;;;;;11.23;7.00;;;13.90;99.90;;;;;;5055592;28;20427;-76
2022/08/08 05:48:03;;;;;;;22.67;12.90;;;14.00;99.90;;;;;;5055669;28;20123;-76
2022/08/08 05:50:30;;;;;;;27.90;14.40;;;14.10;99.90;;;;;;5054309;28;20080;-77
2022/08/08 05:52:56;;;;;;;19.48;12.65;;;14.20;99.90;;;;;;5053437;28;20040;-77
2022/08/08 05:55:22;;;;;;;24.00;13.38;;;14.20;99.90;;;;;;5053459;28;20492;-74
2022/08/08 05:57:51;;;;;;;17.08;10.32;;;14.30;99.90;;;;;;5053364;28;20072;-75
2022/08/08 06:00:17;;;;;;;20.77;10.93;;;14.30;99.90;;;;;;5053341;28;20128;-76
2022/08/08 06:05:32;;;;;;;21.67;11.63;;;14.50;99.90;;;;;;5054815;28;20133;-80
2022/08/08 06:07:59;;;;;;;15.25;11.00;;;14.50;99.90;;;;;;5054438;28;20045;-77
2022/08/08 06:10:30;;;;;;;15.98;10.40;;;14.60;99.90;;;;;;5036411;28;20178;-77
2022/08/08 06:12:55;;;;;;;16.30;8.57;;;14.60;99.90;;;;;;5053356;28;20333;-75
2022/08/08 06:15:22;;;;;;;14.35;8.82;;;14.70;99.90;;;;;;5054466;28;20037;-77
2022/08/08 06:17:50;;;;;;;14.93;9.00;;;14.80;99.90;;;;;;5054255;28;20377;-77
2022/08/08 06:20:16;;;;;;;11.63;7.78;;;14.80;99.90;;;;;;5036539;28;20511;-78
2022/08/08 06:22:42;;;;;;;14.77;7.65;;;14.90;99.90;;;;;;5054225;28;20045;-78
2022/08/08 06:25:08;;;;;;;13.50;7.78;;;14.90;99.90;;;;;;5054175;28;20107;-78
2022/08/08 06:27:43;;;;;;;11.48;7.30;;;15.00;99.90;;;;;;5053744;28;20079;-77
2022/08/08 06:30:11;;;;;;;13.95;7.70;;;15.10;99.90;;;;;;5052811;28;20033;-78
2022/08/08 06:32:43;;;;;;;14.43;8.13;;;15.10;99.90;;;;;;5052659;28;20491;-77
2022/08/08 06:35:12;;;;;;;17.20;7.57;;;15.20;99.90;;;;;;5052935;28;20037;-75
2022/08/08 06:37:45;;;;;;;11.98;6.43;;;15.20;99.90;;;;;;5052420;28;20144;-76
2022/08/08 06:40:14;;;;;;;9.82;6.05;;;15.30;99.90;;;;;;5035853;28;20136;-76
2022/08/08 06:42:45;;;;;;;12.38;7.32;;;15.40;99.90;;;;;;5035830;28;20033;-75
2022/08/08 06:45:12;;;;;;;10.98;6.57;;;15.50;99.90;;;;;;5052705;28;20045;-76
2022/08/08 06:47:38;;;;;;;13.25;6.75;;;15.60;99.90;;;;;;5054092;28;20033;-74
2022/08/08 06:50:05;;;;;;;9.57;6.10;;;15.70;99.90;;;;;;5035724;28;20090;-76
2022/08/08 06:52:31;;;;;;;11.73;6.28;;;15.70;99.90;;;;;;5051917;28;20041;-76
2022/08/08 06:54:59;;;;;;;10.10;6.00;;;15.80;99.90;;;;;;5052340;28;20041;-77
2022/08/08 06:57:25;;;;;;;9.10;4.85;;;15.90;99.90;;;;;;5052169;28;20047;-75
2022/08/08 06:59:52;;;;;;;11.60;5.88;;;16.10;99.90;;;;;;5053996;28;20037;-74
2022/08/08 07:02:27;;;;;;;13.30;5.45;;;16.20;99.90;;;;;;5035521;28;20040;-75
2022/08/08 07:05:00;;;;;;;13.67;5.70;;;16.30;99.90;;;;;;5052100;28;20044;-76
2022/08/08 07:07:52;;;;;;;18.75;5.38;;;16.40;99.90;;;;;;5052230;28;20114;-78
2022/08/08 07:10:23;;;;;;;7.70;4.35;;;16.50;99.90;;;;;;5035364;28;20123;-75
2022/08/08 07:13:16;;;;;;;10.35;3.90;;;16.50;99.90;;;;;;5053591;28;20040;-76
2022/08/08 07:15:58;;;;;;;10.20;4.20;;;16.60;99.90;;;;;;5053577;28;20048;-76
2022/08/08 07:18:59;;;;;;;10.80;4.95;;;16.60;99.90;;;;;;5055326;28;20044;-79
2022/08/08 07:21:32;;;;;;;12.25;4.43;;;16.60;99.90;;;;;;5071519;28;20051;-75
2022/08/08 07:24:03;;;;;;;7.95;4.10;;;16.70;99.90;;;;;;5071862;28;20115;-76
2022/08/08 07:26:32;;;;;;;9.43;4.47;;;16.70;99.90;;;;;;5071653;28;20388;-75
2022/08/08 07:56:00;;;;;;;4.80;2.33;;;17.60;99.90;;;;;;5188792;22;20575;-77
2022/08/08 07:58:29;;;;;;;7.45;2.63;;;17.70;99.90;;;;;;4999548;28;20425;-77
2022/08/08 08:01:05;;;;;;;5.47;2.78;;;17.90;99.90;;;;;;4999968;28;20100;-75
2022/08/08 08:03:40;;;;;;;7.80;1.83;;;18.00;99.90;;;;;;5017371;28;20144;-76
2022/08/08 08:06:08;;;;;;;5.82;1.80;;;18.20;99.90;;;;;;5017410;28;20484;-74
2022/08/08 08:09:02;;;;;;;3.95;1.98;;;18.20;99.90;;;;;;5016770;28;20367;-76
2022/08/08 08:11:32;;;;;;;6.00;2.03;;;18.30;99.90;;;;;;5016476;28;20053;-76
2022/08/08 08:14:05;;;;;;;5.93;1.95;;;18.30;99.90;;;;;;5016824;28;20041;-77
2022/08/08 08:16:38;;;;;;;5.70;2.25;;;18.30;99.90;;;;;;5016713;28;20118;-75
2022/08/08 08:19:06;;;;;;;4.95;2.30;;;18.30;99.90;;;;;;4999016;28;20057;-77
2022/08/08 08:21:39;;;;;;;5.53;2.20;;;18.20;99.90;;;;;;4998885;28;20038;-76
2022/08/08 08:24:05;;;;;;;6.00;2.42;;;18.10;99.90;;;;;;5017323;28;20469;-76
2022/08/08 08:26:31;;;;;;;5.88;2.10;;;18.10;99.90;;;;;;4998718;28;20048;-76
2022/08/08 08:28:57;;;;;;;6.20;2.10;;;18.10;99.90;;;;;;4998793;28;20045;-76
2022/08/08 08:31:23;;;;;;;5.75;1.88;;;18.00;99.90;;;;;;5016744;28;20038;-77
2022/08/08 08:33:49;;;;;;;9.68;2.75;;;18.10;99.90;;;;;;4982881;28;20114;-76
2022/08/08 08:36:17;;;;;;;5.40;1.50;;;18.10;99.90;;;;;;4998787;28;20125;-74
2022/08/08 08:38:43;;;;;;;6.45;1.73;;;18.20;99.90;;;;;;4998680;28;20466;-76
2022/08/08 08:41:11;;;;;;;4.70;1.38;;;18.30;99.90;;;;;;5016516;28;20041;-75
2022/08/08 08:43:38;;;;;;;4.28;1.30;;;18.30;99.90;;;;;;4998854;28;20037;-74
2022/08/08 08:46:08;;;;;;;3.78;1.30;;;18.40;99.90;;;;;;4998460;28;20048;-75
2022/08/08 08:48:34;;;;;;;3.08;1.20;;;18.50;99.90;;;;;;4998654;28;20057;-75
2022/08/08 08:51:01;;;;;;;3.13;1.30;;;18.70;99.90;;;;;;5015460;28;20041;-76
2022/08/08 08:53:33;;;;;;;3.20;1.10;;;18.90;99.90;;;;;;4998700;28;20117;-78
2022/08/08 08:56:00;;;;;;;5.07;1.45;;;19.10;99.90;;;;;;4998186;28;20048;-76
2022/08/08 08:58:31;;;;;;;4.38;1.17;;;19.40;99.90;;;;;;4998202;28;20078;-77
2022/08/08 09:01:00;;;;;;;3.15;1.40;;;19.60;99.90;;;;;;4997699;28;20038;-76
2022/08/08 09:03:26;;;;;;;3.38;1.05;;;19.80;99.90;;;;;;4980776;28;20041;-76
2022/08/08 09:05:53;;;;;;;4.97;1.08;;;20.00;99.90;;;;;;4997108;28;20042;-79
2022/08/08 09:08:23;;;;;;;3.20;1.27;;;20.00;99.90;;;;;;5013615;28;20060;-75
2022/08/08 09:10:49;;;;;;;4.45;1.20;;;19.90;99.90;;;;;;5014301;28;20822;-74
2022/08/08 09:13:17;;;;;;;2.97;1.10;;;19.80;99.90;;;;;;5035980;28;20071;-80
2022/08/08 09:15:43;;;;;;;3.90;1.10;;;19.70;99.90;;;;;;5018300;28;20045;-75
2022/08/08 09:18:10;;;;;;;2.83;1.00;;;19.60;99.90;;;;;;5017724;28;20041;-75
2022/08/08 09:20:38;;;;;;;3.28;1.15;;;19.60;99.90;;;;;;5035467;28;20091;-78
2022/08/08 09:23:04;;;;;;;5.65;1.30;;;19.50;99.90;;;;;;5017233;28;20064;-76
2022/08/08 09:25:34;;;;;;;4.82;1.10;;;19.50;99.90;;;;;;5017873;28;20084;-77
2022/08/08 09:28:00;;;;;;;3.13;1.02;;;19.50;99.90;;;;;;5036152;28;20037;-77
2022/08/08 09:30:32;;;;;;;2.80;0.93;;;19.50;99.90;;;;;;5017428;28;20397;-76
2022/08/08 09:32:58;;;;;;;2.90;1.13;;;19.50;99.90;;;;;;5017479;28;20056;-77
2022/08/08 09:35:27;;;;;;;3.67;1.00;;;19.50;99.90;;;;;;5035863;28;20163;-75
2022/08/08 09:38:01;;;;;;;3.67;1.05;;;19.50;99.90;;;;;;5017062;28;20057;-76
2022/08/08 09:40:30;;;;;;;2.20;0.90;;;19.60;99.90;;;;;;5017158;28;20127;-76
2022/08/08 09:43:08;;;;;;;3.13;0.88;;;19.60;99.90;;;;;;5035083;28;20041;-76
2022/08/08 09:45:51;;;;;;;4.05;1.02;;;19.60;99.90;;;;;;5035741;28;20339;-76
2022/08/08 09:48:17;;;;;;;3.85;1.20;;;19.60;99.90;;;;;;5016860;28;20073;-75
2022/08/08 09:50:45;;;;;;;2.65;1.08;;;19.70;99.90;;;;;;5016960;28;20130;-75
2022/08/08 09:53:14;;;;;;;3.30;1.35;;;19.70;99.90;;;;;;5016853;28;20405;-75
2022/08/08 09:55:40;;;;;;;3.92;1.38;;;19.80;99.90;;;;;;5034486;28;20148;-76
2022/08/08 09:58:13;;;;;;;5.32;1.20;;;19.80;99.90;;;;;;5016794;28;20124;-75
2022/08/08 10:00:40;;;;;;;7.60;1.30;;;19.90;99.90;;;;;;5017110;28;20050;-74
2022/08/08 10:03:06;;;;;;;1.90;0.90;;;19.90;99.90;;;;;;5015765;28;20124;-77
2022/08/08 10:05:36;;;;;;;4.88;1.70;;;20.10;99.90;;;;;;5016501;28;20121;-78
2022/08/08 10:08:03;;;;;;;2.40;1.20;;;20.10;99.90;;;;;;5000463;28;20051;-77
2022/08/08 10:10:32;;;;;;;2.55;1.00;;;20.20;99.90;;;;;;5034793;28;20041;-74
2022/08/08 10:12:59;;;;;;;2.55;1.00;;;20.30;99.90;;;;;;5034562;28;20509;-75
2022/08/08 10:15:34;;;;;;;1.88;0.82;;;20.30;99.90;;;;;;5016962;28;20068;-75
2022/08/08 10:18:00;;;;;;;2.28;0.90;;;20.40;99.90;;;;;;5016535;28;20042;-75
2022/08/08 10:20:28;;;;;;;4.05;1.10;;;20.50;99.90;;;;;;5016412;28;20111;-77
2022/08/08 10:22:59;;;;;;;4.43;1.10;;;20.50;99.90;;;;;;4997979;28;20041;-77
2022/08/08 10:25:26;;;;;;;2.65;1.15;;;20.50;99.90;;;;;;4996184;28;20417;-75
2022/08/08 10:27:53;;;;;;;2.58;0.90;;;20.50;99.90;;;;;;5031404;28;20140;-76
2022/08/08 10:30:24;;;;;;;3.00;0.98;;;20.40;99.90;;;;;;5016421;28;20049;-76
2022/08/08 10:32:56;;;;;;;3.75;1.10;;;20.40;99.90;;;;;;5016985;28;20037;-76
2022/08/08 10:35:25;;;;;;;4.93;1.20;;;20.40;99.90;;;;;;5000227;28;20080;-78
2022/08/08 10:37:50;;;;;;;3.70;0.98;;;20.40;99.90;;;;;;4998802;28;20057;-77
2022/08/08 10:40:17;;;;;;;4.15;0.90;;;20.40;99.90;;;;;;5034119;28;20045;-75
2022/08/08 10:42:46;;;;;;;4.00;0.98;;;20.40;99.90;;;;;;5032736;28;20041;-74
2022/08/08 10:45:12;;;;;;;4.22;1.23;;;20.50;99.90;;;;;;5033743;28;20033;-75
2022/08/08 10:47:42;;;;;;;3.80;1.10;;;20.50;99.90;;;;;;5016045;28;20102;-75
2022/08/08 10:50:08;;;;;;;2.83;1.10;;;20.50;99.90;;;;;;5033908;28;20037;-75
2022/08/08 10:52:40;;;;;;;3.95;1.50;;;20.50;99.90;;;;;;5033788;28;20041;-77
2022/08/08 10:55:12;;;;;;;3.40;1.33;;;20.50;99.90;;;;;;5015907;28;20075;-76
2022/08/08 10:57:44;;;;;;;3.22;1.20;;;20.50;99.90;;;;;;5016394;28;20061;-75
2022/08/08 11:00:12;;;;;;;5.20;1.30;;;20.50;99.90;;;;;;5033675;28;20037;-83
2022/08/08 11:02:39;;;;;;;5.07;1.30;;;20.40;99.90;;;;;;5016534;28;20033;-85
2022/08/08 11:05:09;;;;;;;4.22;1.30;;;20.40;99.90;;;;;;5035656;28;20437;-88
2022/08/08 11:07:38;;;;;;;4.75;1.60;;;20.40;99.90;;;;;;5033968;28;20115;-79
2022/08/08 11:10:13;;;;;;;4.30;1.50;;;20.40;99.90;;;;;;5033930;28;20547;-78
2022/08/08 11:12:48;;;;;;;3.35;1.40;;;20.40;99.90;;;;;;4999727;28;20077;-80
2022/08/08 11:15:15;;;;;;;5.03;1.50;;;20.40;99.90;;;;;;5015591;28;20042;-77
2022/08/08 11:17:43;;;;;;;3.65;1.60;;;20.30;99.90;;;;;;4999507;28;20053;-81
2022/08/08 11:20:17;;;;;;;3.92;1.40;;;20.40;99.90;;;;;;5033445;28;20069;-75
2022/08/08 11:22:50;;;;;;;4.13;1.47;;;20.40;99.90;;;;;;5015315;28;20064;-74
2022/08/08 11:25:28;;;;;;;4.22;1.70;;;20.30;99.90;;;;;;5033108;28;20276;-77
2022/08/08 11:27:55;;;;;;;4.68;1.77;;;20.40;99.90;;;;;;5033553;28;20045;-76
2022/08/08 11:30:27;;;;;;;4.72;1.50;;;20.40;99.90;;;;;;5015463;28;20469;-74
2022/08/08 11:33:02;;;;;;;5.55;1.98;;;20.40;99.90;;;;;;5015884;28;20037;-76
2022/08/08 11:35:28;;;;;;;;;;;20.40;99.90;;;;;;5017124;28;20045;-74
2022/08/08 11:37:54;;;;;;;4.63;1.95;;;20.30;99.90;;;;;;5033488;28;19932;-75
2022/08/08 11:40:20;;;;;;;5.50;1.90;;;20.30;99.90;;;;;;5033156;28;20358;-75
2022/08/08 11:42:45;;;;;;;4.15;1.48;;;20.40;99.90;;;;;;5033087;28;20042;-76
2022/08/08 11:45:12;;;;;;;4.93;1.90;;;20.40;99.90;;;;;;4999082;28;20088;-74
2022/08/08 11:47:39;;;;;;;4.97;1.70;;;20.40;99.90;;;;;;5015560;28;20447;-77
2022/08/08 11:50:14;;;;;;;5.40;1.60;;;20.40;99.90;;;;;;5015775;28;20052;-76
2022/08/08 11:52:41;;;;;;;4.60;1.65;;;20.50;99.90;;;;;;5032901;28;20090;-75
2022/08/08 11:55:18;;;;;;;5.13;1.70;;;20.60;99.90;;;;;;5032995;28;20040;-77
2022/08/08 11:57:44;;;;;;;7.53;1.50;;;20.60;99.90;;;;;;5015236;28;20041;-77
2022/08/08 12:00:16;;;;;;;7.45;1.60;;;20.60;99.90;;;;;;5015262;28;20042;-76
2022/08/08 12:02:47;;;;;;;3.90;1.38;;;20.60;99.90;;;;;;5015384;28;20037;-76
2022/08/08 12:05:13;;;;;;;2.60;1.20;;;20.60;99.90;;;;;;5032697;28;20121;-78
2022/08/08 12:07:47;;;;;;;4.43;1.40;;;20.50;99.90;;;;;;5015309;28;20080;-75
2022/08/08 12:10:14;;;;;;;3.65;1.20;;;20.60;99.90;;;;;;5015624;28;20112;-80
2022/08/08 12:12:47;;;;;;;3.67;1.90;;;20.60;99.90;;;;;;5017940;28;20124;-77
2022/08/08 12:15:30;;;;;;;2.92;1.30;;;20.60;99.90;;;;;;5020948;28;20117;-80
2022/08/08 12:17:56;;;;;;;3.88;1.45;;;20.60;99.90;;;;;;5015064;28;20124;-83
2022/08/08 12:20:22;;;;;;;4.95;1.50;;;20.60;99.90;;;;;;5034465;28;20069;-80
2022/08/08 12:22:50;;;;;;;3.55;1.25;;;20.70;99.90;;;;;;5016340;28;20045;-82
2022/08/08 12:25:26;;;;;;;5.97;1.60;;;20.80;99.90;;;;;;5016135;28;20033;-82
2022/08/08 12:28:10;;;;;;;4.18;1.55;;;20.80;99.90;;;;;;5020498;28;20041;-82
2022/08/08 12:30:36;;;;;;;5.53;1.40;;;21.00;99.90;;;;;;5020152;28;20060;-82
2022/08/08 12:33:02;;;;;;;3.75;1.40;;;21.10;99.90;;;;;;5003446;28;20052;-83
2022/08/08 12:35:38;;;;;;;4.82;1.55;;;21.10;99.90;;;;;;5019489;28;20033;-84
2022/08/08 12:38:06;;;;;;;3.25;1.48;;;21.20;99.90;;;;;;5028852;28;20397;-79
2022/08/08 12:40:42;;;;;;;4.60;1.70;;;21.30;99.90;;;;;;5035344;28;20463;-81
2022/08/08 12:43:13;;;;;;;5.80;1.23;;;21.30;99.90;;;;;;5018727;28;20099;-80
2022/08/08 12:45:43;;;;;;;4.03;1.42;;;21.40;99.90;;;;;;5035717;28;20038;-82
2022/08/08 12:48:20;;;;;;;3.58;1.50;;;21.50;99.90;;;;;;5018735;28;20397;-80
2022/08/08 12:50:54;;;;;;;3.80;1.40;;;21.60;99.90;;;;;;5034990;28;20049;-79
2022/08/08 12:53:32;;;;;;;3.33;1.40;;;21.60;99.90;;;;;;5018325;28;20041;-78
2022/08/08 12:56:06;;;;;;;4.38;1.30;;;21.70;99.90;;;;;;5019948;28;20049;-79
2022/08/08 12:58:49;;;;;;;4.15;1.30;;;21.80;99.90;;;;;;5001675;28;20034;-80
2022/08/08 13:01:15;;;;;;;3.97;1.10;;;21.80;99.90;;;;;;5017667;28;20112;-80
2022/08/08 13:03:45;;;;;;;3.22;1.40;;;21.90;99.90;;;;;;5033265;28;20077;-80
2022/08/08 13:06:16;;;;;;;3.55;1.15;;;22.00;99.90;;;;;;5032045;28;20076;-80
2022/08/08 13:08:46;;;;;;;3.50;1.40;;;22.10;99.90;;;;;;5034487;28;20037;-79
2022/08/08 13:14:45;;;;;;;4.35;1.33;;;22.30;99.90;;;;;;5035751;28;20045;-77
2022/08/08 13:17:12;;;;;;;5.30;1.67;;;22.30;99.90;;;;;;5034157;28;20052;-77
2022/08/08 13:19:38;;;;;;;6.57;1.77;;;22.30;99.90;;;;;;5017343;28;20087;-77
2022/08/08 13:22:05;;;;;;;6.57;1.20;;;22.30;99.90;;;;;;5035445;28;20042;-77
2022/08/08 13:24:36;;;;;;;3.80;1.25;;;22.10;99.90;;;;;;5015498;28;20041;-78
2022/08/08 13:27:04;;;;;;;7.63;1.80;;;22.20;99.90;;;;;;5015780;28;20033;-77
2022/08/08 13:29:30;;;;;;;5.88;1.80;;;22.20;99.90;;;;;;5034852;28;20140;-81
2022/08/08 13:32:02;;;;;;;5.60;1.52;;;22.20;99.90;;;;;;4999070;28;20088;-81
2022/08/08 13:34:28;;;;;;;7.82;2.25;;;22.10;99.90;;;;;;5001400;28;20448;-80
2022/08/08 13:36:57;;;;;;;4.50;1.20;;;22.10;99.90;;;;;;4982538;28;20060;-80
2022/08/08 13:39:23;;;;;;;6.07;1.92;;;22.10;99.90;;;;;;5015428;28;20042;-81
2022/08/08 13:41:53;;;;;;;4.32;1.48;;;22.10;99.90;;;;;;4989732;28;20046;-79
2022/08/08 13:44:20;;;;;;;3.90;1.30;;;22.10;99.90;;;;;;5035126;28;20033;-79
2022/08/08 13:46:58;;;;;;;4.55;1.48;;;22.10;99.90;;;;;;5035499;28;20052;-80
2022/08/08 13:49:27;;;;;;;5.70;1.60;;;22.10;99.90;;;;;;5017949;28;20385;-80
2022/08/08 13:52:04;;;;;;;3.88;1.35;;;22.00;99.90;;;;;;5017702;28;20075;-81
2022/08/08 13:54:33;;;;;;;3.08;1.30;;;22.00;99.90;;;;;;5017529;28;20041;-79
2022/08/08 13:57:05;;;;;;;3.10;1.38;;;22.10;99.90;;;;;;5001300;28;20045;-80